sensor_id;sensor_type;location;lat;lon;timestamp;P1;P2;P0
72918;PMS7003;68407;55.694;26.994;2023-03-23T00:04:10;7.3;6.4;5.2
72918;PMS7003;68407;55.694;26.994;2023-03-23T00:08:54;9.4;7.6;5.8
72918;PMS7003;68407;55.694;26.994;2023-03-23T00:14:20;8.7;7.6;6
72918;PMS7003;68407;55.694;26.994;2023-03-23T00:19:09;8.5;7.2;5.5
72918;PMS7003;68407;55.694;26.994;2023-03-23T00:24:32;10.4;8.3;6.3
72918;PMS7003;68407;55.694;26.994;2023-03-23T00:28:55;9.9;8.4;6
72918;PMS7003;68407;55.694;26.994;2023-03-23T00:33:44;9.4;7.8;5.7
72918;PMS7003;68407;55.694;26.994;2023-03-23T00:39:23;9.3;7.5;5.7
72918;PMS7003;68407;55.694;26.994;2023-03-23T00:44:11;9;7.5;5.7
72918;PMS7003;68407;55.694;26.994;2023-03-23T00:49:30;11.7;9.9;7
72918;PMS7003;68407;55.694;26.994;2023-03-23T00:54:11;12.7;10.2;7.5
72918;PMS7003;68407;55.694;26.994;2023-03-23T00:58:44;12.5;10.1;7.7
72918;PMS7003;68407;55.694;26.994;2023-03-23T01:04:34;12.8;10.7;7.5
72918;PMS7003;68407;55.694;26.994;2023-03-23T01:09:11;13.7;10.7;7.8
72918;PMS7003;68407;55.694;26.994;2023-03-23T01:14:32;12.3;9.8;7.2
72918;PMS7003;68407;55.694;26.994;2023-03-23T01:19:11;12.7;10.1;7.8
72918;PMS7003;68407;55.694;26.994;2023-03-23T01:23:45;13.7;10.4;7.7
72918;PMS7003;68407;55.694;26.994;2023-03-23T01:29:24;12.2;10.1;7.3
72918;PMS7003;68407;55.694;26.994;2023-03-23T01:34:12;9.4;7.4;5.7
72918;PMS7003;68407;55.694;26.994;2023-03-23T01:39:35;10.9;9.1;6.8
72918;PMS7003;68407;55.694;26.994;2023-03-23T01:45:20;10.7;8.7;6.6
72918;PMS7003;68407;55.694;26.994;2023-03-23T01:48:44;9.1;7.4;5.5
72918;PMS7003;68407;55.694;26.994;2023-03-23T01:54:23;10.1;8.5;6.3
72918;PMS7003;68407;55.694;26.994;2023-03-23T01:59:11;10;8.4;6.2
72918;PMS7003;68407;55.694;26.994;2023-03-23T02:04:34;8.9;7.6;5.7
72918;PMS7003;68407;55.694;26.994;2023-03-23T02:09:10;8.5;7.4;5.7
72918;PMS7003;68407;55.694;26.994;2023-03-23T02:13:45;10.5;8.8;6.4
72918;PMS7003;68407;55.694;26.994;2023-03-23T02:19:19;11.1;8.5;6.3
72918;PMS7003;68407;55.694;26.994;2023-03-23T02:24:20;11.4;8.8;6.7
72918;PMS7003;68407;55.694;26.994;2023-03-23T02:29:43;11.3;9.2;6.8
72918;PMS7003;68407;55.694;26.994;2023-03-23T02:34:23;11.8;10;7.3
72918;PMS7003;68407;55.694;26.994;2023-03-23T02:39:02;11.5;9.9;7.4
72918;PMS7003;68407;55.694;26.994;2023-03-23T02:44:02;12.3;9.1;6.6
72918;PMS7003;68407;55.694;26.994;2023-03-23T02:49:13;13.3;10.3;7.2
72918;PMS7003;68407;55.694;26.994;2023-03-23T02:54:34;12.8;10.5;8.2
72918;PMS7003;68407;55.694;26.994;2023-03-23T02:59:01;11;9.7;6.9
72918;PMS7003;68407;55.694;26.994;2023-03-23T03:03:55;13.1;10.7;7.9
72918;PMS7003;68407;55.694;26.994;2023-03-23T03:09:24;12;10.4;7.2
72918;PMS7003;68407;55.694;26.994;2023-03-23T03:13:51;13;10.9;7.8
72918;PMS7003;68407;55.694;26.994;2023-03-23T03:19:29;14.3;10;7.2
72918;PMS7003;68407;55.694;26.994;2023-03-23T03:24:13;13.1;11.1;8
72918;PMS7003;68407;55.694;26.994;2023-03-23T03:28:45;11.4;9.5;7
72918;PMS7003;68407;55.694;26.994;2023-03-23T03:34:21;13.9;11.6;8
72918;PMS7003;68407;55.694;26.994;2023-03-23T03:38:54;14.3;11.8;8.3
72918;PMS7003;68407;55.694;26.994;2023-03-23T03:44:28;13.7;11.5;7.9
72918;PMS7003;68407;55.694;26.994;2023-03-23T03:49:11;13.2;11.1;8.1
72918;PMS7003;68407;55.694;26.994;2023-03-23T03:53:45;13.7;10.9;8.2
72918;PMS7003;68407;55.694;26.994;2023-03-23T03:59:24;13.8;11.3;8.2
72918;PMS7003;68407;55.694;26.994;2023-03-23T04:03:44;13.6;11.2;8.1
72918;PMS7003;68407;55.694;26.994;2023-03-23T04:09:32;12.8;11.3;8.5
72918;PMS7003;68407;55.694;26.994;2023-03-23T04:13:44;14.9;12.7;9.3
72918;PMS7003;68407;55.694;26.994;2023-03-23T04:18:55;13.3;11.2;7.8
72918;PMS7003;68407;55.694;26.994;2023-03-23T04:24:22;14.7;12;8.6
72918;PMS7003;68407;55.694;26.994;2023-03-23T04:29:13;13.6;11.4;8.5
72918;PMS7003;68407;55.694;26.994;2023-03-23T04:34:33;14.1;11.5;8.1
72918;PMS7003;68407;55.694;26.994;2023-03-23T04:39:10;14.5;11.4;7.8
72918;PMS7003;68407;55.694;26.994;2023-03-23T04:43:44;14;11.5;8.3
72918;PMS7003;68407;55.694;26.994;2023-03-23T04:49:18;14.1;11.5;7.9
72918;PMS7003;68407;55.694;26.994;2023-03-23T04:54:02;14.2;11.3;8.2
72918;PMS7003;68407;55.694;26.994;2023-03-23T04:59:30;13.7;11.3;8.5
72918;PMS7003;68407;55.694;26.994;2023-03-23T05:04:22;14.7;11.8;8.6
72918;PMS7003;68407;55.694;26.994;2023-03-23T05:08:45;13.8;12;8.6
72918;PMS7003;68407;55.694;26.994;2023-03-23T05:14:23;13.2;10.4;7.6
72918;PMS7003;68407;55.694;26.994;2023-03-23T05:19:31;13.8;11;8.1
72918;PMS7003;68407;55.694;26.994;2023-03-23T05:24:31;12.9;10.8;7.3
72918;PMS7003;68407;55.694;26.994;2023-03-23T05:29:13;13.8;11.7;8.9
72918;PMS7003;68407;55.694;26.994;2023-03-23T05:33:55;14.9;11.7;8.7
72918;PMS7003;68407;55.694;26.994;2023-03-23T05:39:11;14;11;7.9
72918;PMS7003;68407;55.694;26.994;2023-03-23T05:43:55;13.1;10.9;7.8
72918;PMS7003;68407;55.694;26.994;2023-03-23T05:49:33;13.4;11.6;8.7
72918;PMS7003;68407;55.694;26.994;2023-03-23T05:54:13;12.6;10.9;8.4
72918;PMS7003;68407;55.694;26.994;2023-03-23T05:58:51;13.3;11.1;8.2
72918;PMS7003;68407;55.694;26.994;2023-03-23T06:04:23;12.9;10.9;8.2
72918;PMS7003;68407;55.694;26.994;2023-03-23T06:08:45;12.1;10.6;7.9
72918;PMS7003;68407;55.694;26.994;2023-03-23T06:14:31;12.7;10.5;7.5
72918;PMS7003;68407;55.694;26.994;2023-03-23T06:19:33;13.5;10.8;8
72918;PMS7003;68407;55.694;26.994;2023-03-23T06:23:45;12.9;10.2;7.7
72918;PMS7003;68407;55.694;26.994;2023-03-23T06:29:09;13.9;10.9;8
72918;PMS7003;68407;55.694;26.994;2023-03-23T06:34:31;14.2;10.9;8
72918;PMS7003;68407;55.694;26.994;2023-03-23T06:39:31;13.6;11.1;7.7
72918;PMS7003;68407;55.694;26.994;2023-03-23T06:44:01;14.4;11.1;8.2
72918;PMS7003;68407;55.694;26.994;2023-03-23T06:48:55;13.9;11.8;8.7
72918;PMS7003;68407;55.694;26.994;2023-03-23T06:54:11;13.7;11.7;8.4
72918;PMS7003;68407;55.694;26.994;2023-03-23T06:58:45;14.8;11.9;8.7
72918;PMS7003;68407;55.694;26.994;2023-03-23T07:04:15;14.3;11.8;8.5
72918;PMS7003;68407;55.694;26.994;2023-03-23T07:09:13;12.3;10.6;8.1
72918;PMS7003;68407;55.694;26.994;2023-03-23T07:13:55;13.6;11.3;7.8
72918;PMS7003;68407;55.694;26.994;2023-03-23T07:19:21;15.8;12.9;9
72918;PMS7003;68407;55.694;26.994;2023-03-23T07:23:55;14.2;12.4;8.9
72918;PMS7003;68407;55.694;26.994;2023-03-23T07:29:33;13.8;11.9;9.1
72918;PMS7003;68407;55.694;26.994;2023-03-23T07:34:01;15.4;12.6;9.2
72918;PMS7003;68407;55.694;26.994;2023-03-23T07:39:15;14.9;11.9;8.5
72918;PMS7003;68407;55.694;26.994;2023-03-23T07:43:57;14.8;12.1;8.2
72918;PMS7003;68407;55.694;26.994;2023-03-23T07:48:55;17.5;14.5;10.2
72918;PMS7003;68407;55.694;26.994;2023-03-23T07:54:33;17.3;14.2;10.1
72918;PMS7003;68407;55.694;26.994;2023-03-23T07:59:13;16.8;14.5;10.2
72918;PMS7003;68407;55.694;26.994;2023-03-23T08:03:45;15.5;12.7;9.2
72918;PMS7003;68407;55.694;26.994;2023-03-23T08:09:23;16.5;13.4;9.9
72918;PMS7003;68407;55.694;26.994;2023-03-23T08:13:45;15.8;13.9;10.3
72918;PMS7003;68407;55.694;26.994;2023-03-23T08:19:31;17.6;14.4;9.8
72918;PMS7003;68407;55.694;26.994;2023-03-23T08:24:13;15.9;13.9;10.2
72918;PMS7003;68407;55.694;26.994;2023-03-23T08:29:07;18.2;15.7;10.7
72918;PMS7003;68407;55.694;26.994;2023-03-23T08:34:33;17.8;14.6;10.3
72918;PMS7003;68407;55.694;26.994;2023-03-23T08:38:45;20.7;17.3;11.9
72918;PMS7003;68407;55.694;26.994;2023-03-23T08:44:29;18.6;16.4;11.5
72918;PMS7003;68407;55.694;26.994;2023-03-23T08:48:55;17.4;15.1;11.1
72918;PMS7003;68407;55.694;26.994;2023-03-23T08:53:55;18.9;15.9;11.1
72918;PMS7003;68407;55.694;26.994;2023-03-23T08:59:21;17;14.4;10.5
72918;PMS7003;68407;55.694;26.994;2023-03-23T09:04:03;16.1;13.4;10.2
72918;PMS7003;68407;55.694;26.994;2023-03-23T09:09:29;16;13.9;9.8
72918;PMS7003;68407;55.694;26.994;2023-03-23T09:13:57;16.5;14.4;10.4
72918;PMS7003;68407;55.694;26.994;2023-03-23T09:19:11;16.9;15.4;10.9
72918;PMS7003;68407;55.694;26.994;2023-03-23T09:23:47;17.1;14.9;10.8
72918;PMS7003;68407;55.694;26.994;2023-03-23T09:28:45;15.3;13.2;9.9
72918;PMS7003;68407;55.694;26.994;2023-03-23T09:34:13;16.4;14.1;9.3
72918;PMS7003;68407;55.694;26.994;2023-03-23T09:39:11;16.9;14.8;10.7
72918;PMS7003;68407;55.694;26.994;2023-03-23T09:44:04;17.1;14.6;10.5
72918;PMS7003;68407;55.694;26.994;2023-03-23T09:49:23;16;14.6;10.2
72918;PMS7003;68407;55.694;26.994;2023-03-23T09:53:46;15.7;14.2;10.4
72918;PMS7003;68407;55.694;26.994;2023-03-23T09:59:34;17;14.3;10.1
72918;PMS7003;68407;55.694;26.994;2023-03-23T10:03:45;16.8;14.3;10.4
72918;PMS7003;68407;55.694;26.994;2023-03-23T10:08:45;17.3;14.5;10.3
72918;PMS7003;68407;55.694;26.994;2023-03-23T10:14:27;15.2;13.4;10.3
72918;PMS7003;68407;55.694;26.994;2023-03-23T10:19:03;17.2;14.9;10.6
72918;PMS7003;68407;55.694;26.994;2023-03-23T10:24:35;16.8;14.7;10.6
72918;PMS7003;68407;55.694;26.994;2023-03-23T10:29:04;15.2;13.6;10
72918;PMS7003;68407;55.694;26.994;2023-03-23T10:34:08;14.5;12.9;9.3
72918;PMS7003;68407;55.694;26.994;2023-03-23T10:39:11;14.6;12.5;9.8
72918;PMS7003;68407;55.694;26.994;2023-03-23T10:44:10;15.1;12.8;9.5
72918;PMS7003;68407;55.694;26.994;2023-03-23T10:49:08;15.7;13.4;9.8
72918;PMS7003;68407;55.694;26.994;2023-03-23T10:54:24;17.2;13.7;9.8
72918;PMS7003;68407;55.694;26.994;2023-03-23T10:59:20;14.3;12.6;9.6
72918;PMS7003;68407;55.694;26.994;2023-03-23T11:04:25;15.3;13.5;10.1
72918;PMS7003;68407;55.694;26.994;2023-03-23T11:09:38;14.2;12.1;8.7
72918;PMS7003;68407;55.694;26.994;2023-03-23T11:14:35;16.9;13.7;9.8
72918;PMS7003;68407;55.694;26.994;2023-03-23T11:19:14;14.9;12.9;9.3
72918;PMS7003;68407;55.694;26.994;2023-03-23T11:23:47;16.9;13.9;10.4
72918;PMS7003;68407;55.694;26.994;2023-03-23T11:29:33;15.6;13.6;10.3
72918;PMS7003;68407;55.694;26.994;2023-03-23T11:33:58;15.4;13.7;10.1
72918;PMS7003;68407;55.694;26.994;2023-03-23T11:39:34;15.9;13.2;9.7
72918;PMS7003;68407;55.694;26.994;2023-03-23T11:44:13;14.4;12.6;9.2
72918;PMS7003;68407;55.694;26.994;2023-03-23T11:48:57;15.4;12.8;9.5
72918;PMS7003;68407;55.694;26.994;2023-03-23T11:54:15;14;12.7;9.5
72918;PMS7003;68407;55.694;26.994;2023-03-23T11:58:45;13.2;11.3;8.7
72918;PMS7003;68407;55.694;26.994;2023-03-23T12:04:32;12.5;10.8;8.4
72918;PMS7003;68407;55.694;26.994;2023-03-23T12:09:13;13.9;11.9;9.2
72918;PMS7003;68407;55.694;26.994;2023-03-23T12:14:16;12.6;11.4;8.7
72918;PMS7003;68407;55.694;26.994;2023-03-23T12:19:35;12.9;11.2;8.4
72918;PMS7003;68407;55.694;26.994;2023-03-23T12:23:56;12.2;10.1;8
72918;PMS7003;68407;55.694;26.994;2023-03-23T12:29:19;11.2;9.5;7.3
72918;PMS7003;68407;55.694;26.994;2023-03-23T12:33:56;13.5;11.4;8.7
72918;PMS7003;68407;55.694;26.994;2023-03-23T12:39:48;12.1;10.5;8.2
72918;PMS7003;68407;55.694;26.994;2023-03-23T12:44:38;11.7;10.5;8.1
72918;PMS7003;68407;55.694;26.994;2023-03-23T12:49:34;11.8;10.1;8
72918;PMS7003;68407;55.694;26.994;2023-03-23T12:54:16;11.8;9;7
72918;PMS7003;68407;55.694;26.994;2023-03-23T12:59:15;10.3;8.9;6.7
72918;PMS7003;68407;55.694;26.994;2023-03-23T13:04:15;10.2;9;7.1
72918;PMS7003;68407;55.694;26.994;2023-03-23T13:09:42;12.7;10.9;8.2
72918;PMS7003;68407;55.694;26.994;2023-03-23T13:13:56;11.8;10.7;8.3
72918;PMS7003;68407;55.694;26.994;2023-03-23T13:19:17;11.1;10.1;7.5
72918;PMS7003;68407;55.694;26.994;2023-03-23T13:24:14;11;9.6;7.3
72918;PMS7003;68407;55.694;26.994;2023-03-23T13:29:05;11;10.5;8.1
72918;PMS7003;68407;55.694;26.994;2023-03-23T13:34:38;10.6;9;6.8
72918;PMS7003;68407;55.694;26.994;2023-03-23T13:38:45;10.4;9.4;7.5
72918;PMS7003;68407;55.694;26.994;2023-03-23T13:44:18;11.9;10.3;8.1
72918;PMS7003;68407;55.694;26.994;2023-03-23T13:48:45;12.5;10.3;7.7
72918;PMS7003;68407;55.694;26.994;2023-03-23T13:54:06;9.6;8.2;6.2
72918;PMS7003;68407;55.694;26.994;2023-03-23T13:59:31;10.8;9.4;7.3
72918;PMS7003;68407;55.694;26.994;2023-03-23T14:03:55;11.3;9.8;7.7
72918;PMS7003;68407;55.694;26.994;2023-03-23T14:09:03;12.1;10.2;7.6
72918;PMS7003;68407;55.694;26.994;2023-03-23T14:13:46;11.6;9.9;7.6
72918;PMS7003;68407;55.694;26.994;2023-03-23T14:19:18;11.4;9.8;7.7
72918;PMS7003;68407;55.694;26.994;2023-03-23T14:24:33;12.7;10;7.5
72918;PMS7003;68407;55.694;26.994;2023-03-23T14:28:46;10.7;8.7;6.3
72918;PMS7003;68407;55.694;26.994;2023-03-23T14:34:15;10.2;9.1;7
72918;PMS7003;68407;55.694;26.994;2023-03-23T14:39:04;9.9;9.1;7.2
72918;PMS7003;68407;55.694;26.994;2023-03-23T14:44:16;11.6;9.9;7.7
72918;PMS7003;68407;55.694;26.994;2023-03-23T14:49:38;11.2;9.4;7.5
72918;PMS7003;68407;55.694;26.994;2023-03-23T14:53:45;11.1;9.1;7
72918;PMS7003;68407;55.694;26.994;2023-03-23T14:59:35;10.2;9;6.9
72918;PMS7003;68407;55.694;26.994;2023-03-23T15:04:02;11.6;10.6;8.3
72918;PMS7003;68407;55.694;26.994;2023-03-23T15:09:20;10.8;9.2;7.3
72918;PMS7003;68407;55.694;26.994;2023-03-23T15:14:41;12.3;10.1;7.9
72918;PMS7003;68407;55.694;26.994;2023-03-23T15:18:53;12.7;11;8.4
72918;PMS7003;68407;55.694;26.994;2023-03-23T15:24:20;11.2;10.2;8.3
72918;PMS7003;68407;55.694;26.994;2023-03-23T15:29:45;12.4;9.7;7.8
72918;PMS7003;68407;55.694;26.994;2023-03-23T15:34:18;12.3;11;8.4
72918;PMS7003;68407;55.694;26.994;2023-03-23T15:39:40;11.2;9.7;7.6
72918;PMS7003;68407;55.694;26.994;2023-03-23T15:43:49;12.5;10.8;8.3
72918;PMS7003;68407;55.694;26.994;2023-03-23T15:49:17;13.2;11.2;8.4
72918;PMS7003;68407;55.694;26.994;2023-03-23T15:54:15;12.4;11.1;8.4
72918;PMS7003;68407;55.694;26.994;2023-03-23T15:58:57;12.9;11.2;8.6
72918;PMS7003;68407;55.694;26.994;2023-03-23T16:04:37;14;11.5;9
72918;PMS7003;68407;55.694;26.994;2023-03-23T16:09:37;13.5;11.2;8.3
72918;PMS7003;68407;55.694;26.994;2023-03-23T16:14:15;15.7;12.8;9.1
72918;PMS7003;68407;55.694;26.994;2023-03-23T16:19:17;13.1;11.1;8.5
72918;PMS7003;68407;55.694;26.994;2023-03-23T16:24:35;12.2;10.7;8.4
72918;PMS7003;68407;55.694;26.994;2023-03-23T16:28:45;12.4;10.6;7.9
72918;PMS7003;68407;55.694;26.994;2023-03-23T16:33:55;12;10.7;8.1
72918;PMS7003;68407;55.694;26.994;2023-03-23T16:39:27;14.6;11.6;8.8
72918;PMS7003;68407;55.694;26.994;2023-03-23T16:44:23;14.8;13.2;9.7
72918;PMS7003;68407;55.694;26.994;2023-03-23T16:49:39;13.9;11.8;8.6
72918;PMS7003;68407;55.694;26.994;2023-03-23T16:54:07;15.3;13.3;9.7
72918;PMS7003;68407;55.694;26.994;2023-03-23T16:59:09;15;12.8;9.5
72918;PMS7003;68407;55.694;26.994;2023-03-23T17:04:33;14.7;12.8;9.1
72918;PMS7003;68407;55.694;26.994;2023-03-23T17:09:21;14.4;12.2;9.2
72918;PMS7003;68407;55.694;26.994;2023-03-23T17:14:23;14.2;12.3;9.2
72918;PMS7003;68407;55.694;26.994;2023-03-23T17:19:05;15;11.9;8.7
72918;PMS7003;68407;55.694;26.994;2023-03-23T17:23:45;12.1;10.1;7.3
72918;PMS7003;68407;55.694;26.994;2023-03-23T17:29:07;12;10.4;7.4
72918;PMS7003;68407;55.694;26.994;2023-03-23T17:34:17;13.3;11.3;8.4
72918;PMS7003;68407;55.694;26.994;2023-03-23T17:39:33;13.4;11.3;8.4
72918;PMS7003;68407;55.694;26.994;2023-03-23T17:44:09;12.5;11;8.2
72918;PMS7003;68407;55.694;26.994;2023-03-23T17:49:09;13.9;11.3;8.5
72918;PMS7003;68407;55.694;26.994;2023-03-23T17:53:55;11.9;10.5;7.4
72918;PMS7003;68407;55.694;26.994;2023-03-23T17:59:19;10.6;8.3;6.3
72918;PMS7003;68407;55.694;26.994;2023-03-23T18:04:35;8.1;7.2;5.9
72918;PMS7003;68407;55.694;26.994;2023-03-23T18:09:09;6.5;5.6;4.5
72918;PMS7003;68407;55.694;26.994;2023-03-23T18:13:45;7.7;5.7;4.6
72918;PMS7003;68407;55.694;26.994;2023-03-23T18:19:09;6.7;5.6;4.3
72918;PMS7003;68407;55.694;26.994;2023-03-23T18:23:59;8.2;7;5.4
72918;PMS7003;68407;55.694;26.994;2023-03-23T18:29:35;8.2;7;5.6
72918;PMS7003;68407;55.694;26.994;2023-03-23T18:33:55;7.9;6.9;5.5
72918;PMS7003;68407;55.694;26.994;2023-03-23T18:38:45;8.8;7.5;6
72918;PMS7003;68407;55.694;26.994;2023-03-23T18:43:45;10.4;7.7;6.2
72918;PMS7003;68407;55.694;26.994;2023-03-23T18:49:21;8.7;7.7;6
72918;PMS7003;68407;55.694;26.994;2023-03-23T18:54:35;8.4;7.4;5.9
72918;PMS7003;68407;55.694;26.994;2023-03-23T18:59:13;8.5;6.7;5.2
72918;PMS7003;68407;55.694;26.994;2023-03-23T19:03:45;6.8;6;4.6
72918;PMS7003;68407;55.694;26.994;2023-03-23T19:09:09;7.2;5.7;4.4
72918;PMS7003;68407;55.694;26.994;2023-03-23T19:14:19;6.1;5.3;4.4
72918;PMS7003;68407;55.694;26.994;2023-03-23T19:19:33;6.9;5.3;4.3
72918;PMS7003;68407;55.694;26.994;2023-03-23T19:24:09;7.2;5.8;4.5
72918;PMS7003;68407;55.694;26.994;2023-03-23T19:28:57;6.7;5.6;4.8
72918;PMS7003;68407;55.694;26.994;2023-03-23T19:34:09;5.3;4.9;3.7
72918;PMS7003;68407;55.694;26.994;2023-03-23T19:39:21;6.3;5.1;3.9
72918;PMS7003;68407;55.694;26.994;2023-03-23T19:44:35;6.2;4.8;3.9
72918;PMS7003;68407;55.694;26.994;2023-03-23T19:49:23;6.7;5.4;4.4
72918;PMS7003;68407;55.694;26.994;2023-03-23T19:53:57;7.4;5.7;4.4
72918;PMS7003;68407;55.694;26.994;2023-03-23T19:58:55;5.2;4.4;3.9
72918;PMS7003;68407;55.694;26.994;2023-03-23T20:04:21;5.5;4.6;3.7
72918;PMS7003;68407;55.694;26.994;2023-03-23T20:09:19;5.7;4.5;3.5
72918;PMS7003;68407;55.694;26.994;2023-03-23T20:14:25;4.9;4;3.1
72918;PMS7003;68407;55.694;26.994;2023-03-23T20:18:45;5.4;4.4;3.6
72918;PMS7003;68407;55.694;26.994;2023-03-23T20:24:23;5.9;4.9;3.8
72918;PMS7003;68407;55.694;26.994;2023-03-23T20:29:19;5;4.2;3.5
72918;PMS7003;68407;55.694;26.994;2023-03-23T20:34:35;4.8;4.2;3.5
72918;PMS7003;68407;55.694;26.994;2023-03-23T20:39:17;5.9;4.8;3.9
72918;PMS7003;68407;55.694;26.994;2023-03-23T20:43:45;6.2;5.1;4.3
72918;PMS7003;68407;55.694;26.994;2023-03-23T20:48:45;6.3;5.3;4.3
72918;PMS7003;68407;55.694;26.994;2023-03-23T20:54:19;5.9;4.8;3.8
72918;PMS7003;68407;55.694;26.994;2023-03-23T20:59:33;5.9;5;3.9
72918;PMS7003;68407;55.694;26.994;2023-03-23T21:04:18;4.9;4.2;3.4
72918;PMS7003;68407;55.694;26.994;2023-03-23T21:09:07;5.8;5.1;4.1
72918;PMS7003;68407;55.694;26.994;2023-03-23T21:13:57;5;3.7;3.2
72918;PMS7003;68407;55.694;26.994;2023-03-23T21:19:33;5.7;4.5;3.7
72918;PMS7003;68407;55.694;26.994;2023-03-23T21:24:33;5.1;4.8;3.7
72918;PMS7003;68407;55.694;26.994;2023-03-23T21:29:19;6.8;5.3;4.2
72918;PMS7003;68407;55.694;26.994;2023-03-23T21:33:57;6;5;3.9
72918;PMS7003;68407;55.694;26.994;2023-03-23T21:39:09;5.4;4.9;4
72918;PMS7003;68407;55.694;26.994;2023-03-23T21:44:09;6.4;5.1;4
72918;PMS7003;68407;55.694;26.994;2023-03-23T21:49:35;6.2;4.7;4
72918;PMS7003;68407;55.694;26.994;2023-03-23T21:54:13;5.2;3.9;3.3
72918;PMS7003;68407;55.694;26.994;2023-03-23T21:59:05;6.1;5.2;4
72918;PMS7003;68407;55.694;26.994;2023-03-23T22:04:07;6;4.7;3.9
72918;PMS7003;68407;55.694;26.994;2023-03-23T22:09:19;6.1;5.1;4
72918;PMS7003;68407;55.694;26.994;2023-03-23T22:14:35;6.4;5.1;4.1
72918;PMS7003;68407;55.694;26.994;2023-03-23T22:19:23;5.4;4.8;3.8
72918;PMS7003;68407;55.694;26.994;2023-03-23T22:23:45;5.9;5.5;4.3
72918;PMS7003;68407;55.694;26.994;2023-03-23T22:28:58;5.6;4.8;4
72918;PMS7003;68407;55.694;26.994;2023-03-23T22:34:19;6.2;4.9;4.1
72918;PMS7003;68407;55.694;26.994;2023-03-23T22:39:35;6.6;4.9;4.2
72918;PMS7003;68407;55.694;26.994;2023-03-23T22:44:15;7;5.7;4.6
72918;PMS7003;68407;55.694;26.994;2023-03-23T22:48:57;7.3;6.1;4.8
72918;PMS7003;68407;55.694;26.994;2023-03-23T22:53:45;7.8;6;5.1
72918;PMS7003;68407;55.694;26.994;2023-03-23T22:59:19;8.2;6.6;5.2
72918;PMS7003;68407;55.694;26.994;2023-03-23T23:04:35;6.9;5.8;4.5
72918;PMS7003;68407;55.694;26.994;2023-03-23T23:08:47;6.3;5.6;4.5
72918;PMS7003;68407;55.694;26.994;2023-03-23T23:13:45;7.8;5.5;4.5
72918;PMS7003;68407;55.694;26.994;2023-03-23T23:18:57;6.8;5.8;4.3
72918;PMS7003;68407;55.694;26.994;2023-03-23T23:24:23;6.3;4.8;3.7
72918;PMS7003;68407;55.694;26.994;2023-03-23T23:29:35;5.6;5;4.2
72918;PMS7003;68407;55.694;26.994;2023-03-23T23:34:35;7.7;6;4.4
72918;PMS7003;68407;55.694;26.994;2023-03-23T23:38:57;7.2;6.2;4.8
72918;PMS7003;68407;55.694;26.994;2023-03-23T23:43:55;8.1;6.7;5.3
72918;PMS7003;68407;55.694;26.994;2023-03-23T23:49:23;7.5;6.1;4.8
72918;PMS7003;68407;55.694;26.994;2023-03-23T23:54:37;6.4;5.8;4.5
72918;PMS7003;68407;55.694;26.994;2023-03-23T23:59:24;6.2;5.6;4.4
